sensor_id;sensor_type;location;lat;lon;timestamp;P1;durP1;ratioP1;P2;durP2;ratioP2
32186;SDS011;18686;53.084;8.872;2023-11-18T00:00:21;7.55;;;5.07;;
32186;SDS011;18686;53.084;8.872;2023-11-18T00:02:49;6.47;;;4.88;;
32186;SDS011;18686;53.084;8.872;2023-11-18T00:05:17;6.50;;;5.28;;
32186;SDS011;18686;53.084;8.872;2023-11-18T00:07:47;8.75;;;5.63;;
32186;SDS011;18686;53.084;8.872;2023-11-18T00:10:15;8.02;;;5.25;;
32186;SDS011;18686;53.084;8.872;2023-11-18T00:12:43;9.73;;;5.53;;
32186;SDS011;18686;53.084;8.872;2023-11-18T00:15:13;8.45;;;4.97;;
32186;SDS011;18686;53.084;8.872;2023-11-18T00:17:41;7.88;;;5.22;;
32186;SDS011;18686;53.084;8.872;2023-11-18T00:20:10;8.77;;;5.82;;
32186;SDS011;18686;53.084;8.872;2023-11-18T00:22:39;8.90;;;6.00;;
32186;SDS011;18686;53.084;8.872;2023-11-18T00:25:09;8.35;;;5.72;;
32186;SDS011;18686;53.084;8.872;2023-11-18T00:27:38;10.57;;;5.57;;
32186;SDS011;18686;53.084;8.872;2023-11-18T00:30:07;8.93;;;5.47;;
32186;SDS011;18686;53.084;8.872;2023-11-18T00:32:38;7.25;;;5.40;;
32186;SDS011;18686;53.084;8.872;2023-11-18T00:35:07;6.30;;;4.97;;
32186;SDS011;18686;53.084;8.872;2023-11-18T00:37:37;8.27;;;5.40;;
32186;SDS011;18686;53.084;8.872;2023-11-18T00:40:06;9.40;;;5.55;;
32186;SDS011;18686;53.084;8.872;2023-11-18T00:42:37;9.60;;;5.18;;
32186;SDS011;18686;53.084;8.872;2023-11-18T00:45:06;10.02;;;6.13;;
32186;SDS011;18686;53.084;8.872;2023-11-18T00:47:35;10.48;;;7.00;;
32186;SDS011;18686;53.084;8.872;2023-11-18T00:50:03;10.27;;;6.95;;
32186;SDS011;18686;53.084;8.872;2023-11-18T00:52:35;11.02;;;7.53;;
32186;SDS011;18686;53.084;8.872;2023-11-18T00:55:05;14.30;;;8.30;;
32186;SDS011;18686;53.084;8.872;2023-11-18T00:57:36;13.43;;;9.10;;
32186;SDS011;18686;53.084;8.872;2023-11-18T01:00:08;12.93;;;7.55;;
32186;SDS011;18686;53.084;8.872;2023-11-18T01:02:43;10.75;;;7.22;;
32186;SDS011;18686;53.084;8.872;2023-11-18T01:05:13;11.68;;;6.45;;
32186;SDS011;18686;53.084;8.872;2023-11-18T01:07:41;9.35;;;6.93;;
32186;SDS011;18686;53.084;8.872;2023-11-18T01:10:11;11.63;;;7.75;;
32186;SDS011;18686;53.084;8.872;2023-11-18T01:12:41;9.40;;;6.57;;
32186;SDS011;18686;53.084;8.872;2023-11-18T01:15:10;10.07;;;6.70;;
32186;SDS011;18686;53.084;8.872;2023-11-18T01:17:38;11.32;;;6.85;;
32186;SDS011;18686;53.084;8.872;2023-11-18T01:20:07;10.60;;;7.20;;
32186;SDS011;18686;53.084;8.872;2023-11-18T01:22:38;10.20;;;6.85;;
32186;SDS011;18686;53.084;8.872;2023-11-18T01:25:07;9.57;;;6.72;;
32186;SDS011;18686;53.084;8.872;2023-11-18T01:27:36;11.10;;;6.90;;
32186;SDS011;18686;53.084;8.872;2023-11-18T01:30:06;9.73;;;6.55;;
32186;SDS011;18686;53.084;8.872;2023-11-18T01:32:38;10.48;;;7.13;;
32186;SDS011;18686;53.084;8.872;2023-11-18T01:35:08;8.68;;;6.63;;
32186;SDS011;18686;53.084;8.872;2023-11-18T01:37:37;9.70;;;6.85;;
32186;SDS011;18686;53.084;8.872;2023-11-18T01:40:06;8.23;;;6.32;;
32186;SDS011;18686;53.084;8.872;2023-11-18T01:42:35;10.48;;;6.68;;
32186;SDS011;18686;53.084;8.872;2023-11-18T01:45:03;10.32;;;6.63;;
32186;SDS011;18686;53.084;8.872;2023-11-18T01:47:38;9.25;;;6.85;;
32186;SDS011;18686;53.084;8.872;2023-11-18T01:50:07;9.52;;;6.40;;
32186;SDS011;18686;53.084;8.872;2023-11-18T01:52:38;8.38;;;5.93;;
32186;SDS011;18686;53.084;8.872;2023-11-18T01:55:12;10.40;;;6.63;;
32186;SDS011;18686;53.084;8.872;2023-11-18T01:57:40;9.27;;;6.40;;
32186;SDS011;18686;53.084;8.872;2023-11-18T02:00:12;10.85;;;6.60;;
32186;SDS011;18686;53.084;8.872;2023-11-18T02:05:13;9.32;;;6.68;;
32186;SDS011;18686;53.084;8.872;2023-11-18T02:07:42;9.77;;;6.35;;
32186;SDS011;18686;53.084;8.872;2023-11-18T02:10:10;8.63;;;6.60;;
32186;SDS011;18686;53.084;8.872;2023-11-18T02:12:43;10.10;;;6.88;;
32186;SDS011;18686;53.084;8.872;2023-11-18T02:15:17;10.00;;;7.15;;
32186;SDS011;18686;53.084;8.872;2023-11-18T02:17:47;8.80;;;5.93;;
32186;SDS011;18686;53.084;8.872;2023-11-18T02:20:20;8.20;;;6.15;;
32186;SDS011;18686;53.084;8.872;2023-11-18T02:22:50;10.00;;;6.88;;
32186;SDS011;18686;53.084;8.872;2023-11-18T02:25:19;8.93;;;6.47;;
32186;SDS011;18686;53.084;8.872;2023-11-18T02:27:50;11.25;;;7.28;;
32186;SDS011;18686;53.084;8.872;2023-11-18T02:30:20;9.25;;;6.20;;
32186;SDS011;18686;53.084;8.872;2023-11-18T02:32:51;9.80;;;6.25;;
32186;SDS011;18686;53.084;8.872;2023-11-18T02:35:28;7.43;;;5.70;;
32186;SDS011;18686;53.084;8.872;2023-11-18T02:37:58;7.43;;;5.60;;
32186;SDS011;18686;53.084;8.872;2023-11-18T02:40:32;8.43;;;6.05;;
32186;SDS011;18686;53.084;8.872;2023-11-18T02:43:04;9.73;;;6.05;;
32186;SDS011;18686;53.084;8.872;2023-11-18T02:45:32;8.38;;;5.85;;
32186;SDS011;18686;53.084;8.872;2023-11-18T02:48:03;8.63;;;6.10;;
32186;SDS011;18686;53.084;8.872;2023-11-18T02:50:34;7.78;;;5.55;;
32186;SDS011;18686;53.084;8.872;2023-11-18T02:53:03;9.40;;;5.65;;
32186;SDS011;18686;53.084;8.872;2023-11-18T02:55:32;6.82;;;5.55;;
32186;SDS011;18686;53.084;8.872;2023-11-18T02:58:00;8.98;;;6.03;;
32186;SDS011;18686;53.084;8.872;2023-11-18T03:00:33;7.47;;;5.57;;
32186;SDS011;18686;53.084;8.872;2023-11-18T03:03:04;9.27;;;6.13;;
32186;SDS011;18686;53.084;8.872;2023-11-18T03:05:33;6.80;;;5.03;;
32186;SDS011;18686;53.084;8.872;2023-11-18T03:08:03;7.40;;;5.60;;
32186;SDS011;18686;53.084;8.872;2023-11-18T03:10:32;8.15;;;6.03;;
32186;SDS011;18686;53.084;8.872;2023-11-18T03:13:01;8.95;;;6.00;;
32186;SDS011;18686;53.084;8.872;2023-11-18T03:15:29;8.15;;;6.03;;
32186;SDS011;18686;53.084;8.872;2023-11-18T03:17:59;7.65;;;5.97;;
32186;SDS011;18686;53.084;8.872;2023-11-18T03:20:28;7.25;;;5.75;;
32186;SDS011;18686;53.084;8.872;2023-11-18T03:22:58;7.57;;;6.18;;
32186;SDS011;18686;53.084;8.872;2023-11-18T03:25:27;8.25;;;6.07;;
32186;SDS011;18686;53.084;8.872;2023-11-18T03:27:56;7.40;;;5.78;;
32186;SDS011;18686;53.084;8.872;2023-11-18T03:30:24;9.13;;;6.25;;
32186;SDS011;18686;53.084;8.872;2023-11-18T03:32:53;8.80;;;6.15;;
32186;SDS011;18686;53.084;8.872;2023-11-18T03:35:23;7.40;;;5.72;;
32186;SDS011;18686;53.084;8.872;2023-11-18T03:37:52;7.75;;;6.15;;
32186;SDS011;18686;53.084;8.872;2023-11-18T03:40:21;9.20;;;6.07;;
32186;SDS011;18686;53.084;8.872;2023-11-18T03:42:50;10.23;;;6.45;;
32186;SDS011;18686;53.084;8.872;2023-11-18T03:45:20;7.65;;;5.70;;
32186;SDS011;18686;53.084;8.872;2023-11-18T03:47:50;8.93;;;5.80;;
32186;SDS011;18686;53.084;8.872;2023-11-18T03:50:18;8.93;;;6.75;;
32186;SDS011;18686;53.084;8.872;2023-11-18T03:52:47;7.05;;;5.93;;
32186;SDS011;18686;53.084;8.872;2023-11-18T03:55:16;9.15;;;6.28;;
32186;SDS011;18686;53.084;8.872;2023-11-18T03:57:45;10.18;;;6.72;;
32186;SDS011;18686;53.084;8.872;2023-11-18T04:00:15;10.82;;;8.25;;
32186;SDS011;18686;53.084;8.872;2023-11-18T04:02:44;11.13;;;8.23;;
32186;SDS011;18686;53.084;8.872;2023-11-18T04:05:13;10.52;;;7.63;;
32186;SDS011;18686;53.084;8.872;2023-11-18T04:07:41;10.55;;;8.02;;
32186;SDS011;18686;53.084;8.872;2023-11-18T04:10:11;11.80;;;8.80;;
32186;SDS011;18686;53.084;8.872;2023-11-18T04:12:39;12.00;;;8.50;;
32186;SDS011;18686;53.084;8.872;2023-11-18T04:15:07;14.10;;;9.15;;
32186;SDS011;18686;53.084;8.872;2023-11-18T04:17:37;12.65;;;9.48;;
32186;SDS011;18686;53.084;8.872;2023-11-18T04:20:07;12.93;;;9.50;;
32186;SDS011;18686;53.084;8.872;2023-11-18T04:22:38;11.02;;;8.88;;
32186;SDS011;18686;53.084;8.872;2023-11-18T04:25:08;12.25;;;8.90;;
32186;SDS011;18686;53.084;8.872;2023-11-18T04:27:38;12.90;;;9.23;;
32186;SDS011;18686;53.084;8.872;2023-11-18T04:30:11;10.52;;;8.68;;
32186;SDS011;18686;53.084;8.872;2023-11-18T04:32:40;11.38;;;9.20;;
32186;SDS011;18686;53.084;8.872;2023-11-18T04:35:10;10.95;;;8.40;;
32186;SDS011;18686;53.084;8.872;2023-11-18T04:37:39;11.50;;;9.65;;
32186;SDS011;18686;53.084;8.872;2023-11-18T04:40:10;10.65;;;9.07;;
32186;SDS011;18686;53.084;8.872;2023-11-18T04:42:41;14.95;;;10.80;;
32186;SDS011;18686;53.084;8.872;2023-11-18T04:45:10;16.80;;;11.00;;
32186;SDS011;18686;53.084;8.872;2023-11-18T04:47:40;20.05;;;13.70;;
32186;SDS011;18686;53.084;8.872;2023-11-18T04:50:10;21.65;;;13.57;;
32186;SDS011;18686;53.084;8.872;2023-11-18T04:52:39;27.20;;;15.75;;
32186;SDS011;18686;53.084;8.872;2023-11-18T04:55:08;24.75;;;16.13;;
32186;SDS011;18686;53.084;8.872;2023-11-18T04:57:41;21.25;;;14.55;;
32186;SDS011;18686;53.084;8.872;2023-11-18T05:00:10;21.38;;;15.48;;
32186;SDS011;18686;53.084;8.872;2023-11-18T05:02:45;19.98;;;13.77;;
32186;SDS011;18686;53.084;8.872;2023-11-18T05:05:16;20.98;;;15.23;;
32186;SDS011;18686;53.084;8.872;2023-11-18T05:07:44;21.13;;;14.60;;
32186;SDS011;18686;53.084;8.872;2023-11-18T05:10:13;22.48;;;15.88;;
32186;SDS011;18686;53.084;8.872;2023-11-18T05:12:42;21.63;;;15.15;;
32186;SDS011;18686;53.084;8.872;2023-11-18T05:15:11;19.23;;;14.65;;
32186;SDS011;18686;53.084;8.872;2023-11-18T05:17:39;22.00;;;15.95;;
32186;SDS011;18686;53.084;8.872;2023-11-18T05:20:07;22.13;;;15.73;;
32186;SDS011;18686;53.084;8.872;2023-11-18T05:22:37;22.30;;;16.05;;
32186;SDS011;18686;53.084;8.872;2023-11-18T05:25:06;24.25;;;17.08;;
32186;SDS011;18686;53.084;8.872;2023-11-18T05:27:36;21.25;;;15.30;;
32186;SDS011;18686;53.084;8.872;2023-11-18T05:30:09;22.27;;;15.80;;
32186;SDS011;18686;53.084;8.872;2023-11-18T05:32:38;20.65;;;16.58;;
32186;SDS011;18686;53.084;8.872;2023-11-18T05:35:07;20.80;;;15.52;;
32186;SDS011;18686;53.084;8.872;2023-11-18T05:37:38;21.17;;;16.70;;
32186;SDS011;18686;53.084;8.872;2023-11-18T05:40:08;19.48;;;15.93;;
32186;SDS011;18686;53.084;8.872;2023-11-18T05:42:38;19.75;;;15.77;;
32186;SDS011;18686;53.084;8.872;2023-11-18T05:45:10;21.77;;;16.60;;
32186;SDS011;18686;53.084;8.872;2023-11-18T05:47:44;22.02;;;16.20;;
32186;SDS011;18686;53.084;8.872;2023-11-18T05:50:13;19.80;;;16.25;;
32186;SDS011;18686;53.084;8.872;2023-11-18T05:52:42;21.92;;;17.63;;
32186;SDS011;18686;53.084;8.872;2023-11-18T05:55:10;25.52;;;17.67;;
32186;SDS011;18686;53.084;8.872;2023-11-18T05:57:38;29.92;;;20.02;;
32186;SDS011;18686;53.084;8.872;2023-11-18T06:00:07;59.83;;;36.28;;
32186;SDS011;18686;53.084;8.872;2023-11-18T06:02:50;70.60;;;44.83;;
32186;SDS011;18686;53.084;8.872;2023-11-18T06:05:19;102.38;;;61.15;;
32186;SDS011;18686;53.084;8.872;2023-11-18T06:07:47;93.13;;;57.53;;
32186;SDS011;18686;53.084;8.872;2023-11-18T06:10:16;127.95;;;81.88;;
32186;SDS011;18686;53.084;8.872;2023-11-18T06:12:47;139.73;;;82.05;;
32186;SDS011;18686;53.084;8.872;2023-11-18T06:15:16;104.32;;;64.88;;
32186;SDS011;18686;53.084;8.872;2023-11-18T06:17:45;80.18;;;48.22;;
32186;SDS011;18686;53.084;8.872;2023-11-18T06:20:14;67.10;;;42.90;;
32186;SDS011;18686;53.084;8.872;2023-11-18T06:22:43;66.07;;;39.90;;
32186;SDS011;18686;53.084;8.872;2023-11-18T06:25:12;49.40;;;31.85;;
32186;SDS011;18686;53.084;8.872;2023-11-18T06:27:40;45.05;;;30.17;;
32186;SDS011;18686;53.084;8.872;2023-11-18T06:30:12;35.72;;;24.08;;
32186;SDS011;18686;53.084;8.872;2023-11-18T06:32:43;35.70;;;23.27;;
32186;SDS011;18686;53.084;8.872;2023-11-18T06:35:13;36.10;;;23.42;;
32186;SDS011;18686;53.084;8.872;2023-11-18T06:37:42;34.20;;;22.63;;
32186;SDS011;18686;53.084;8.872;2023-11-18T06:40:10;36.72;;;23.95;;
32186;SDS011;18686;53.084;8.872;2023-11-18T06:42:45;39.58;;;25.17;;
32186;SDS011;18686;53.084;8.872;2023-11-18T06:45:14;38.22;;;24.25;;
32186;SDS011;18686;53.084;8.872;2023-11-18T06:47:44;36.67;;;23.60;;
32186;SDS011;18686;53.084;8.872;2023-11-18T06:50:13;35.63;;;24.08;;
32186;SDS011;18686;53.084;8.872;2023-11-18T06:52:42;39.15;;;24.70;;
32186;SDS011;18686;53.084;8.872;2023-11-18T06:55:14;40.42;;;25.38;;
32186;SDS011;18686;53.084;8.872;2023-11-18T06:57:43;43.65;;;27.38;;
32186;SDS011;18686;53.084;8.872;2023-11-18T07:00:12;46.00;;;27.63;;
32186;SDS011;18686;53.084;8.872;2023-11-18T07:02:42;44.22;;;25.40;;
32186;SDS011;18686;53.084;8.872;2023-11-18T07:05:11;42.20;;;25.55;;
32186;SDS011;18686;53.084;8.872;2023-11-18T07:07:41;44.20;;;25.98;;
32186;SDS011;18686;53.084;8.872;2023-11-18T07:10:10;44.90;;;26.80;;
32186;SDS011;18686;53.084;8.872;2023-11-18T07:12:41;48.03;;;26.80;;
32186;SDS011;18686;53.084;8.872;2023-11-18T07:15:17;48.70;;;27.52;;
32186;SDS011;18686;53.084;8.872;2023-11-18T07:17:45;45.53;;;26.83;;
32186;SDS011;18686;53.084;8.872;2023-11-18T07:20:15;51.50;;;29.15;;
32186;SDS011;18686;53.084;8.872;2023-11-18T07:22:44;47.70;;;27.48;;
32186;SDS011;18686;53.084;8.872;2023-11-18T07:25:12;49.13;;;28.58;;
32186;SDS011;18686;53.084;8.872;2023-11-18T07:27:40;55.72;;;29.40;;
32186;SDS011;18686;53.084;8.872;2023-11-18T07:30:09;57.03;;;30.08;;
32186;SDS011;18686;53.084;8.872;2023-11-18T07:32:38;54.00;;;29.70;;
32186;SDS011;18686;53.084;8.872;2023-11-18T07:35:07;55.90;;;29.55;;
32186;SDS011;18686;53.084;8.872;2023-11-18T07:37:38;57.65;;;29.85;;
32186;SDS011;18686;53.084;8.872;2023-11-18T07:40:07;55.95;;;29.60;;
32186;SDS011;18686;53.084;8.872;2023-11-18T07:42:38;59.42;;;30.02;;
32186;SDS011;18686;53.084;8.872;2023-11-18T07:45:07;56.90;;;29.38;;
32186;SDS011;18686;53.084;8.872;2023-11-18T07:47:44;59.13;;;30.27;;
32186;SDS011;18686;53.084;8.872;2023-11-18T07:50:15;61.45;;;31.55;;
32186;SDS011;18686;53.084;8.872;2023-11-18T07:52:47;53.67;;;28.33;;
32186;SDS011;18686;53.084;8.872;2023-11-18T07:55:17;66.80;;;32.20;;
32186;SDS011;18686;53.084;8.872;2023-11-18T07:57:45;56.50;;;31.10;;
32186;SDS011;18686;53.084;8.872;2023-11-18T08:00:13;60.47;;;33.92;;
32186;SDS011;18686;53.084;8.872;2023-11-18T08:02:42;75.13;;;35.28;;
32186;SDS011;18686;53.084;8.872;2023-11-18T08:05:12;80.75;;;36.20;;
32186;SDS011;18686;53.084;8.872;2023-11-18T08:07:41;82.55;;;36.35;;
32186;SDS011;18686;53.084;8.872;2023-11-18T08:10:11;64.30;;;35.83;;
32186;SDS011;18686;53.084;8.872;2023-11-18T08:12:40;65.22;;;36.05;;
32186;SDS011;18686;53.084;8.872;2023-11-18T08:15:09;68.10;;;36.22;;
32186;SDS011;18686;53.084;8.872;2023-11-18T08:17:38;70.45;;;34.75;;
32186;SDS011;18686;53.084;8.872;2023-11-18T08:20:06;73.70;;;36.70;;
32186;SDS011;18686;53.084;8.872;2023-11-18T08:22:40;67.38;;;35.20;;
32186;SDS011;18686;53.084;8.872;2023-11-18T08:25:12;62.92;;;35.08;;
32186;SDS011;18686;53.084;8.872;2023-11-18T08:27:41;63.42;;;34.80;;
32186;SDS011;18686;53.084;8.872;2023-11-18T08:30:10;61.75;;;34.33;;
32186;SDS011;18686;53.084;8.872;2023-11-18T08:32:40;67.60;;;37.40;;
32186;SDS011;18686;53.084;8.872;2023-11-18T08:35:10;65.20;;;35.33;;
32186;SDS011;18686;53.084;8.872;2023-11-18T08:37:40;69.45;;;37.22;;
32186;SDS011;18686;53.084;8.872;2023-11-18T08:40:11;65.45;;;36.05;;
32186;SDS011;18686;53.084;8.872;2023-11-18T08:42:43;68.93;;;36.20;;
32186;SDS011;18686;53.084;8.872;2023-11-18T08:45:16;68.93;;;37.03;;
32186;SDS011;18686;53.084;8.872;2023-11-18T08:47:48;69.63;;;35.88;;
32186;SDS011;18686;53.084;8.872;2023-11-18T08:50:19;61.35;;;33.65;;
32186;SDS011;18686;53.084;8.872;2023-11-18T08:52:50;59.40;;;33.88;;
32186;SDS011;18686;53.084;8.872;2023-11-18T08:58:09;60.45;;;32.42;;
32186;SDS011;18686;53.084;8.872;2023-11-18T09:00:48;59.92;;;33.25;;
32186;SDS011;18686;53.084;8.872;2023-11-18T09:03:20;57.83;;;32.42;;
32186;SDS011;18686;53.084;8.872;2023-11-18T09:05:55;83.10;;;34.20;;
32186;SDS011;18686;53.084;8.872;2023-11-18T09:08:25;56.63;;;32.22;;
32186;SDS011;18686;53.084;8.872;2023-11-18T09:10:57;62.92;;;32.50;;
32186;SDS011;18686;53.084;8.872;2023-11-18T09:13:26;56.92;;;32.63;;
32186;SDS011;18686;53.084;8.872;2023-11-18T09:15:56;61.50;;;33.08;;
32186;SDS011;18686;53.084;8.872;2023-11-18T09:18:27;51.72;;;31.05;;
32186;SDS011;18686;53.084;8.872;2023-11-18T09:20:56;56.88;;;33.22;;
32186;SDS011;18686;53.084;8.872;2023-11-18T09:23:28;52.55;;;31.17;;
32186;SDS011;18686;53.084;8.872;2023-11-18T09:26:00;53.95;;;31.20;;
32186;SDS011;18686;53.084;8.872;2023-11-18T09:28:29;57.03;;;31.88;;
32186;SDS011;18686;53.084;8.872;2023-11-18T09:30:57;56.05;;;32.28;;
32186;SDS011;18686;53.084;8.872;2023-11-18T09:33:27;54.63;;;31.27;;
32186;SDS011;18686;53.084;8.872;2023-11-18T09:35:59;54.30;;;32.33;;
32186;SDS011;18686;53.084;8.872;2023-11-18T09:38:28;60.70;;;34.90;;
32186;SDS011;18686;53.084;8.872;2023-11-18T09:40:58;63.72;;;34.15;;
32186;SDS011;18686;53.084;8.872;2023-11-18T09:43:29;57.85;;;32.28;;
32186;SDS011;18686;53.084;8.872;2023-11-18T09:46:03;58.07;;;32.70;;
32186;SDS011;18686;53.084;8.872;2023-11-18T09:48:43;54.45;;;30.58;;
32186;SDS011;18686;53.084;8.872;2023-11-18T09:51:14;54.80;;;30.23;;
32186;SDS011;18686;53.084;8.872;2023-11-18T09:53:49;53.80;;;30.70;;
32186;SDS011;18686;53.084;8.872;2023-11-18T09:56:23;51.33;;;30.58;;
32186;SDS011;18686;53.084;8.872;2023-11-18T09:59:05;49.17;;;28.02;;
32186;SDS011;18686;53.084;8.872;2023-11-18T10:01:42;46.25;;;28.75;;
32186;SDS011;18686;53.084;8.872;2023-11-18T10:04:13;49.45;;;30.02;;
32186;SDS011;18686;53.084;8.872;2023-11-18T10:06:45;49.25;;;28.13;;
32186;SDS011;18686;53.084;8.872;2023-11-18T10:09:14;46.67;;;28.52;;
32186;SDS011;18686;53.084;8.872;2023-11-18T10:11:46;47.13;;;26.92;;
32186;SDS011;18686;53.084;8.872;2023-11-18T10:14:15;42.65;;;28.00;;
32186;SDS011;18686;53.084;8.872;2023-11-18T10:16:44;48.05;;;27.75;;
32186;SDS011;18686;53.084;8.872;2023-11-18T10:19:15;46.80;;;28.17;;
32186;SDS011;18686;53.084;8.872;2023-11-18T10:21:44;50.22;;;28.10;;
32186;SDS011;18686;53.084;8.872;2023-11-18T10:24:16;46.45;;;27.77;;
32186;SDS011;18686;53.084;8.872;2023-11-18T10:26:55;44.45;;;26.48;;
32186;SDS011;18686;53.084;8.872;2023-11-18T10:29:24;50.47;;;29.00;;
32186;SDS011;18686;53.084;8.872;2023-11-18T10:32:04;46.13;;;27.67;;
32186;SDS011;18686;53.084;8.872;2023-11-18T10:34:42;54.33;;;29.05;;
32186;SDS011;18686;53.084;8.872;2023-11-18T10:37:12;52.00;;;29.35;;
32186;SDS011;18686;53.084;8.872;2023-11-18T10:39:46;51.75;;;29.05;;
32186;SDS011;18686;53.084;8.872;2023-11-18T10:42:19;53.35;;;29.75;;
32186;SDS011;18686;53.084;8.872;2023-11-18T10:44:54;56.92;;;30.38;;
32186;SDS011;18686;53.084;8.872;2023-11-18T10:47:24;58.00;;;32.42;;
32186;SDS011;18686;53.084;8.872;2023-11-18T10:49:54;57.50;;;30.83;;
32186;SDS011;18686;53.084;8.872;2023-11-18T10:52:23;62.00;;;33.08;;
32186;SDS011;18686;53.084;8.872;2023-11-18T10:54:57;56.28;;;31.50;;
32186;SDS011;18686;53.084;8.872;2023-11-18T10:57:34;53.50;;;31.83;;
32186;SDS011;18686;53.084;8.872;2023-11-18T11:00:03;51.88;;;31.58;;
32186;SDS011;18686;53.084;8.872;2023-11-18T11:02:40;58.97;;;32.65;;
32186;SDS011;18686;53.084;8.872;2023-11-18T11:05:09;53.65;;;29.88;;
32186;SDS011;18686;53.084;8.872;2023-11-18T11:07:47;50.60;;;29.75;;
32186;SDS011;18686;53.084;8.872;2023-11-18T11:10:16;52.38;;;29.73;;
32186;SDS011;18686;53.084;8.872;2023-11-18T11:12:53;47.17;;;29.35;;
32186;SDS011;18686;53.084;8.872;2023-11-18T11:15:26;49.70;;;28.42;;
32186;SDS011;18686;53.084;8.872;2023-11-18T11:18:14;45.67;;;28.80;;
32186;SDS011;18686;53.084;8.872;2023-11-18T11:20:53;44.33;;;27.05;;
32186;SDS011;18686;53.084;8.872;2023-11-18T11:23:30;50.78;;;28.65;;
32186;SDS011;18686;53.084;8.872;2023-11-18T11:26:13;49.47;;;28.75;;
32186;SDS011;18686;53.084;8.872;2023-11-18T11:28:58;46.85;;;28.85;;
32186;SDS011;18686;53.084;8.872;2023-11-18T11:31:32;47.35;;;29.17;;
32186;SDS011;18686;53.084;8.872;2023-11-18T11:34:06;44.42;;;28.02;;
32186;SDS011;18686;53.084;8.872;2023-11-18T11:36:42;44.95;;;27.75;;
32186;SDS011;18686;53.084;8.872;2023-11-18T11:39:17;45.50;;;27.67;;
32186;SDS011;18686;53.084;8.872;2023-11-18T11:41:53;47.20;;;29.25;;
32186;SDS011;18686;53.084;8.872;2023-11-18T11:44:24;44.97;;;27.67;;
32186;SDS011;18686;53.084;8.872;2023-11-18T11:46:57;40.97;;;27.70;;
32186;SDS011;18686;53.084;8.872;2023-11-18T11:49:30;42.22;;;27.30;;
32186;SDS011;18686;53.084;8.872;2023-11-18T11:52:09;41.88;;;27.08;;
32186;SDS011;18686;53.084;8.872;2023-11-18T11:54:48;43.30;;;27.42;;
32186;SDS011;18686;53.084;8.872;2023-11-18T11:57:23;47.53;;;29.58;;
32186;SDS011;18686;53.084;8.872;2023-11-18T11:59:59;44.55;;;27.10;;
32186;SDS011;18686;53.084;8.872;2023-11-18T12:02:47;42.50;;;26.50;;
32186;SDS011;18686;53.084;8.872;2023-11-18T12:05:17;44.30;;;28.00;;
32186;SDS011;18686;53.084;8.872;2023-11-18T12:07:52;45.55;;;27.27;;
32186;SDS011;18686;53.084;8.872;2023-11-18T12:10:25;40.22;;;26.75;;
32186;SDS011;18686;53.084;8.872;2023-11-18T12:13:07;43.10;;;27.65;;
32186;SDS011;18686;53.084;8.872;2023-11-18T12:15:51;43.83;;;26.15;;
32186;SDS011;18686;53.084;8.872;2023-11-18T12:18:24;44.42;;;27.33;;
32186;SDS011;18686;53.084;8.872;2023-11-18T12:20:52;40.65;;;26.02;;
32186;SDS011;18686;53.084;8.872;2023-11-18T12:23:24;41.45;;;27.13;;
32186;SDS011;18686;53.084;8.872;2023-11-18T12:25:53;40.20;;;26.58;;
32186;SDS011;18686;53.084;8.872;2023-11-18T12:28:25;38.40;;;25.33;;
32186;SDS011;18686;53.084;8.872;2023-11-18T12:30:58;40.60;;;26.80;;
32186;SDS011;18686;53.084;8.872;2023-11-18T12:33:59;45.10;;;27.42;;
32186;SDS011;18686;53.084;8.872;2023-11-18T12:39:51;45.28;;;25.90;;
32186;SDS011;18686;53.084;8.872;2023-11-18T12:45:43;43.67;;;26.17;;
32186;SDS011;18686;53.084;8.872;2023-11-18T12:48:28;41.03;;;25.52;;
32186;SDS011;18686;53.084;8.872;2023-11-18T12:50:59;44.78;;;25.30;;
32186;SDS011;18686;53.084;8.872;2023-11-18T12:53:27;39.70;;;25.80;;
32186;SDS011;18686;53.084;8.872;2023-11-18T12:55:57;41.00;;;26.50;;
32186;SDS011;18686;53.084;8.872;2023-11-18T12:58:27;42.75;;;26.17;;
32186;SDS011;18686;53.084;8.872;2023-11-18T13:01:00;43.25;;;26.52;;
32186;SDS011;18686;53.084;8.872;2023-11-18T13:03:30;43.00;;;25.55;;
32186;SDS011;18686;53.084;8.872;2023-11-18T13:06:01;45.35;;;25.65;;
32186;SDS011;18686;53.084;8.872;2023-11-18T13:08:32;41.45;;;26.00;;
32186;SDS011;18686;53.084;8.872;2023-11-18T13:11:00;44.20;;;26.80;;
32186;SDS011;18686;53.084;8.872;2023-11-18T13:13:32;47.75;;;26.58;;
32186;SDS011;18686;53.084;8.872;2023-11-18T13:16:02;42.35;;;25.55;;
32186;SDS011;18686;53.084;8.872;2023-11-18T13:18:42;43.42;;;25.92;;
32186;SDS011;18686;53.084;8.872;2023-11-18T13:21:14;45.08;;;26.83;;
32186;SDS011;18686;53.084;8.872;2023-11-18T13:23:46;44.22;;;24.77;;
32186;SDS011;18686;53.084;8.872;2023-11-18T13:26:16;43.10;;;25.30;;
32186;SDS011;18686;53.084;8.872;2023-11-18T13:28:45;41.88;;;24.25;;
32186;SDS011;18686;53.084;8.872;2023-11-18T13:31:14;42.38;;;24.40;;
32186;SDS011;18686;53.084;8.872;2023-11-18T13:33:46;42.85;;;25.30;;
32186;SDS011;18686;53.084;8.872;2023-11-18T13:36:15;41.80;;;24.85;;
32186;SDS011;18686;53.084;8.872;2023-11-18T13:38:43;49.03;;;25.88;;
32186;SDS011;18686;53.084;8.872;2023-11-18T13:41:27;48.08;;;24.80;;
32186;SDS011;18686;53.084;8.872;2023-11-18T13:43:57;46.25;;;24.33;;
32186;SDS011;18686;53.084;8.872;2023-11-18T13:46:26;45.83;;;24.70;;
32186;SDS011;18686;53.084;8.872;2023-11-18T13:48:56;48.30;;;25.00;;
32186;SDS011;18686;53.084;8.872;2023-11-18T13:51:25;45.90;;;23.80;;
32186;SDS011;18686;53.084;8.872;2023-11-18T13:53:53;41.40;;;23.77;;
32186;SDS011;18686;53.084;8.872;2023-11-18T13:56:22;43.17;;;23.52;;
32186;SDS011;18686;53.084;8.872;2023-11-18T13:58:53;43.53;;;22.95;;
32186;SDS011;18686;53.084;8.872;2023-11-18T14:01:22;50.60;;;22.58;;
32186;SDS011;18686;53.084;8.872;2023-11-18T14:03:50;42.47;;;21.45;;
32186;SDS011;18686;53.084;8.872;2023-11-18T14:06:21;39.85;;;21.45;;
32186;SDS011;18686;53.084;8.872;2023-11-18T14:08:49;39.67;;;21.60;;
32186;SDS011;18686;53.084;8.872;2023-11-18T14:11:18;41.30;;;21.30;;
32186;SDS011;18686;53.084;8.872;2023-11-18T14:13:46;36.60;;;19.40;;
32186;SDS011;18686;53.084;8.872;2023-11-18T14:16:14;39.40;;;19.05;;
32186;SDS011;18686;53.084;8.872;2023-11-18T14:18:43;33.72;;;17.65;;
32186;SDS011;18686;53.084;8.872;2023-11-18T14:21:12;28.88;;;16.13;;
32186;SDS011;18686;53.084;8.872;2023-11-18T14:23:42;30.30;;;15.93;;
32186;SDS011;18686;53.084;8.872;2023-11-18T14:26:11;29.48;;;15.68;;
32186;SDS011;18686;53.084;8.872;2023-11-18T14:28:39;28.00;;;14.48;;
32186;SDS011;18686;53.084;8.872;2023-11-18T14:31:09;30.80;;;14.90;;
32186;SDS011;18686;53.084;8.872;2023-11-18T14:33:37;26.92;;;14.30;;
32186;SDS011;18686;53.084;8.872;2023-11-18T14:36:06;24.75;;;13.60;;
32186;SDS011;18686;53.084;8.872;2023-11-18T14:38:35;28.20;;;14.13;;
32186;SDS011;18686;53.084;8.872;2023-11-18T14:41:05;27.48;;;13.77;;
32186;SDS011;18686;53.084;8.872;2023-11-18T14:43:34;23.00;;;12.55;;
32186;SDS011;18686;53.084;8.872;2023-11-18T14:46:02;24.70;;;13.60;;
32186;SDS011;18686;53.084;8.872;2023-11-18T14:48:31;26.40;;;13.10;;
32186;SDS011;18686;53.084;8.872;2023-11-18T14:50:59;30.27;;;15.10;;
32186;SDS011;18686;53.084;8.872;2023-11-18T14:53:27;23.90;;;12.38;;
32186;SDS011;18686;53.084;8.872;2023-11-18T14:55:56;23.60;;;13.23;;
32186;SDS011;18686;53.084;8.872;2023-11-18T14:58:25;25.35;;;13.20;;
32186;SDS011;18686;53.084;8.872;2023-11-18T15:00:54;25.90;;;13.63;;